Time;durP1;ratioP1;P1;durP2;ratioP2;P2;SDS_P1;SDS_P2;PMS_P1;PMS_P2;Temp;Humidity;BMP_temperature;BMP_pressure;BME280_temperature;BME280_humidity;BME280_pressure;Samples;Min_cycle;Max_cycle;Signal;HPM_P1;HPM_P2
2020/12/10 00:01:50;;;;;;;15.90;6.90;;;;;;;-6.93;65.62;101964.66;1749834;82;21011;-36
2020/12/10 00:04:20;;;;;;;21.95;7.20;;;;;;;-6.88;65.58;101971.28;1749997;81;21074;-34
2020/12/10 00:06:48;;;;;;;22.30;7.17;;;;;;;-6.88;65.67;101960.34;1750005;82;21368;-34
2020/12/10 00:09:16;;;;;;;15.35;7.05;;;;;;;-6.85;65.54;101972.77;1749894;82;21007;-34
2020/12/10 00:11:44;;;;;;;24.02;6.78;;;;;;;-6.88;65.67;101975.45;1750037;82;21534;-34
2020/12/10 00:14:12;;;;;;;18.87;7.12;;;;;;;-6.90;65.81;101979.50;1749911;82;21073;-34
2020/12/10 00:16:40;;;;;;;15.48;7.15;;;;;;;-6.96;65.97;101985.80;1749961;82;20987;-35
2020/12/10 00:19:08;;;;;;;18.00;7.10;;;;;;;-6.97;66.08;101989.08;1749872;82;21386;-33
2020/12/10 00:21:37;;;;;;;21.33;7.62;;;;;;;-6.97;66.24;101990.33;1749878;82;21125;-34
2020/12/10 00:24:04;;;;;;;18.85;7.40;;;;;;;-6.92;66.17;101989.44;1749914;82;20880;-34
2020/12/10 00:26:32;;;;;;;14.03;6.87;;;;;;;-6.92;66.30;101975.59;1749862;82;20928;-34
2020/12/10 00:29:01;;;;;;;16.07;7.00;;;;;;;-6.93;66.37;101977.61;1749880;82;20936;-34
2020/12/10 00:31:29;;;;;;;16.37;7.08;;;;;;;-6.94;66.41;101970.45;1750002;82;21287;-34
2020/12/10 00:33:57;;;;;;;19.17;7.08;;;;;;;-7.00;66.57;101972.47;1749879;82;20975;-33
2020/12/10 00:36:25;;;;;;;13.62;7.30;;;;;;;-7.02;66.65;101972.73;1749901;82;20951;-34
2020/12/10 00:38:53;;;;;;;21.20;7.25;;;;;;;-7.03;66.78;101971.38;1749977;82;21411;-35
2020/12/10 00:41:21;;;;;;;20.05;8.18;;;;;;;-7.04;66.80;101974.26;1749957;80;20999;-35
2020/12/10 00:43:49;;;;;;;17.60;7.60;;;;;;;-7.05;66.90;101981.72;1749934;82;21200;-35
2020/12/10 00:46:17;;;;;;;16.27;7.92;;;;;;;-7.10;67.02;101982.61;1746830;82;20960;-35
2020/12/10 00:48:45;;;;;;;20.60;8.65;;;;;;;-7.10;67.17;101979.69;1735938;82;21039;-34
2020/12/10 00:51:13;;;;;;;20.48;7.45;;;;;;;-7.11;67.35;101975.81;1735938;82;21856;-34
2020/12/10 00:53:41;;;;;;;17.82;7.25;;;;;;;-7.14;67.55;101966.38;1735981;82;20963;-34
2020/12/10 00:56:10;;;;;;;21.10;8.10;;;;;;;-7.14;67.78;101962.99;1735819;82;21476;-36
2020/12/10 00:58:38;;;;;;;17.92;7.62;;;;;;;-7.11;67.63;101969.52;1735920;82;21031;-34
2020/12/10 01:01:06;;;;;;;17.70;7.72;;;;;;;-7.14;67.66;101970.14;1735902;81;20920;-35
2020/12/10 01:03:34;;;;;;;19.42;7.00;;;;;;;-7.13;67.72;101966.87;1735848;82;20925;-34
2020/12/10 01:06:03;;;;;;;18.15;7.75;;;;;;;-7.09;67.65;101965.48;1715504;82;20984;-35
2020/12/10 01:08:31;;;;;;;18.55;7.75;;;;;;;-7.08;67.77;101960.94;1735898;82;21385;-36
2020/12/10 01:10:59;;;;;;;16.87;7.50;;;;;;;-7.08;67.73;101961.80;1735840;82;21016;-35
2020/12/10 01:13:27;;;;;;;22.13;8.05;;;;;;;-7.11;67.76;101959.05;1735911;82;20952;-34
2020/12/10 01:15:55;;;;;;;25.10;7.12;;;;;;;-7.14;67.88;101966.77;1735861;82;20940;-34
2020/12/10 01:18:23;;;;;;;21.23;7.45;;;;;;;-7.16;67.93;101963.25;1735990;82;20920;-34
2020/12/10 01:20:51;;;;;;;18.30;7.10;;;;;;;-7.12;68.10;101961.47;1735954;82;22542;-34
2020/12/10 01:23:19;;;;;;;26.93;7.33;;;;;;;-7.10;68.15;101966.24;1735918;82;21109;-34
2020/12/10 01:25:47;;;;;;;24.47;7.65;;;;;;;-7.08;68.22;101960.94;1735960;82;20933;-33
2020/12/10 01:28:15;;;;;;;22.55;7.87;;;;;;;-7.08;68.29;101959.28;1735844;82;21122;-34
2020/12/10 01:30:43;;;;;;;21.87;8.15;;;;;;;-7.02;68.48;101960.15;1735936;82;21035;-36
2020/12/10 01:33:11;;;;;;;15.70;7.22;;;;;;;-6.91;68.58;101959.72;1735884;82;21351;-35
2020/12/10 01:35:39;;;;;;;21.00;7.25;;;;;;;-6.82;68.51;101960.80;1735861;82;20999;-34
2020/12/10 01:38:07;;;;;;;17.07;6.92;;;;;;;-6.71;68.47;101955.33;1691748;82;20937;-33
2020/12/10 01:40:35;;;;;;;14.43;7.30;;;;;;;-6.61;68.25;101948.09;1735929;82;20932;-35
2020/12/10 01:43:03;;;;;;;19.30;7.25;;;;;;;-6.52;68.21;101947.14;1735918;82;20920;-33
2020/12/10 01:45:31;;;;;;;20.12;7.60;;;;;;;-6.42;68.20;101946.19;1735856;82;21211;-34
2020/12/10 01:47:59;;;;;;;14.05;6.50;;;;;;;-6.30;67.92;101942.45;1741886;81;20995;-34
2020/12/10 01:50:26;;;;;;;27.60;7.35;;;;;;;-6.22;67.78;101942.63;1744055;82;20940;-34
2020/12/10 01:52:54;;;;;;;16.10;7.17;;;;;;;-6.13;67.74;101946.58;1744019;82;20896;-35
2020/12/10 01:55:22;;;;;;;15.10;6.62;;;;;;;-6.02;67.54;101944.84;1691436;82;20975;-34
2020/12/10 01:57:50;;;;;;;19.90;7.20;;;;;;;-5.94;67.28;101938.66;1744113;82;22229;-34
2020/12/10 02:00:17;;;;;;;13.78;7.55;;;;;;;-5.81;66.98;101933.75;1744012;82;20955;-33
2020/12/10 02:02:45;;;;;;;15.53;7.20;;;;;;;-5.79;67.03;101942.71;1744049;82;20936;-33
2020/12/10 02:05:14;;;;;;;17.37;7.37;;;;;;;-5.73;67.07;101944.41;1743991;82;20940;-34
2020/12/10 02:07:41;;;;;;;21.93;8.38;;;;;;;-5.66;67.10;101950.38;1744136;82;20983;-34
2020/12/10 02:10:11;;;;;;;16.77;8.03;;;;;;;-5.58;66.84;101938.68;1744055;82;20991;-36
2020/12/10 02:12:40;;;;;;;19.00;7.05;;;;;;;-5.46;66.32;101931.99;1743963;81;20987;-35
2020/12/10 02:15:08;;;;;;;16.50;7.62;;;;;;;-5.47;66.29;101925.19;1744121;82;21043;-34
2020/12/10 02:17:36;;;;;;;17.87;7.62;;;;;;;-5.42;66.32;101930.58;1744018;82;20928;-35
2020/12/10 02:20:05;;;;;;;12.98;6.62;;;;;;;-5.43;66.48;101938.89;1743996;82;20904;-35
2020/12/10 02:22:33;;;;;;;18.87;8.23;;;;;;;-5.39;66.49;101928.27;1744000;81;21212;-34
2020/12/10 02:25:01;;;;;;;22.70;8.18;;;;;;;-5.34;66.15;101924.41;1743989;82;21150;-33
2020/12/10 02:27:29;;;;;;;20.88;7.85;;;;;;;-5.32;66.18;101921.60;1744011;81;21007;-35
2020/12/10 02:29:58;;;;;;;15.25;7.53;;;;;;;-5.29;66.22;101913.38;1743942;82;20975;-33
2020/12/10 02:32:26;;;;;;;19.17;8.28;;;;;;;-5.26;66.10;101905.61;1744108;82;20971;-34
2020/12/10 02:34:54;;;;;;;22.07;7.40;;;;;;;-5.28;66.23;101905.89;1744094;82;22538;-34
2020/12/10 02:37:22;;;;;;;18.30;7.47;;;;;;;-5.26;66.30;101881.63;1744062;82;20991;-34
2020/12/10 02:39:50;;;;;;;19.42;8.95;;;;;;;-5.30;66.34;101893.55;1743967;82;20935;-35
2020/12/10 02:42:18;;;;;;;20.95;9.10;;;;;;;-5.27;66.61;101889.11;1743949;82;21027;-34
2020/12/10 02:44:46;;;;;;;18.92;7.85;;;;;;;-5.26;66.46;101856.77;1744059;81;20999;-33
2020/12/10 02:47:14;;;;;;;25.35;9.33;;;;;;;-5.26;66.41;101862.69;1741328;81;22172;-34
2020/12/10 02:49:42;;;;;;;18.80;8.38;;;;;;;-5.27;66.42;101849.56;1735773;82;21003;-35
2020/12/10 02:52:10;;;;;;;24.02;8.88;;;;;;;-5.30;66.66;101845.98;1735748;82;20984;-34
2020/12/10 02:54:38;;;;;;;20.68;8.03;;;;;;;-5.30;66.95;101864.91;1735859;82;21035;-34
2020/12/10 02:57:06;;;;;;;22.80;8.60;;;;;;;-5.27;66.98;101863.86;1735891;82;20881;-36
2020/12/10 02:59:34;;;;;;;22.85;7.58;;;;;;;-5.26;66.97;101868.99;1735873;82;22561;-35
2020/12/10 03:02:02;;;;;;;24.43;8.98;;;;;;;-5.27;67.10;101879.01;1735745;82;21028;-34
2020/12/10 03:04:30;;;;;;;33.15;9.25;;;;;;;-5.21;67.16;101867.66;1735825;82;20995;-33
2020/12/10 03:06:58;;;;;;;21.33;8.33;;;;;;;-5.18;67.28;101855.64;1735725;82;21019;-34
2020/12/10 03:09:26;;;;;;;18.15;7.95;;;;;;;-5.19;67.19;101843.38;1735845;82;21046;-35
2020/12/10 03:11:55;;;;;;;24.40;8.55;;;;;;;-5.21;67.49;101841.14;1735803;82;22841;-35
2020/12/10 03:14:23;;;;;;;24.82;8.40;;;;;;;-5.16;67.31;101838.94;1735786;81;21184;-35
2020/12/10 03:16:51;;;;;;;27.20;8.85;;;;;;;-5.20;67.62;101830.27;1735771;82;20932;-33
2020/12/10 03:19:19;;;;;;;16.82;8.63;;;;;;;-5.18;67.56;101845.54;1735850;82;21027;-34
2020/12/10 03:21:47;;;;;;;20.75;8.23;;;;;;;-5.20;67.81;101850.47;1735898;82;20996;-33
2020/12/10 03:24:15;;;;;;;19.90;8.78;;;;;;;-5.19;67.92;101852.22;1735813;82;21193;-36
2020/12/10 03:26:43;;;;;;;18.10;8.55;;;;;;;-5.16;67.96;101846.92;1735743;82;20920;-34
2020/12/10 03:29:11;;;;;;;20.68;9.75;;;;;;;-5.16;68.23;101860.41;1735773;82;21012;-34
2020/12/10 03:31:39;;;;;;;20.82;8.73;;;;;;;-5.12;68.35;101856.05;1735904;82;21517;-34
2020/12/10 03:34:07;;;;;;;25.55;10.05;;;;;;;-5.07;68.37;101842.08;1735920;82;20904;-33
2020/12/10 03:36:54;;;;;;;19.67;8.63;;;;;;;-5.09;68.37;101842.36;1736066;82;22672;-34
2020/12/10 03:39:23;;;;;;;25.23;8.85;;;;;;;-5.08;68.52;101836.53;1735835;82;20968;-35
2020/12/10 03:41:51;;;;;;;21.00;9.33;;;;;;;-5.06;68.61;101842.97;1735921;82;21027;-35
2020/12/10 03:44:19;;;;;;;19.15;9.35;;;;;;;-5.06;68.79;101832.86;1736058;82;21157;-34
2020/12/10 03:46:47;;;;;;;25.10;9.03;;;;;;;-5.03;68.77;101834.33;1736025;82;20980;-34
2020/12/10 03:49:15;;;;;;;27.35;9.73;;;;;;;-5.00;68.88;101833.27;1749523;82;21601;-34
2020/12/10 03:51:45;;;;;;;25.00;9.45;;;;;;;-4.99;68.94;101831.23;1749957;82;21074;-34
2020/12/10 03:54:12;;;;;;;24.10;9.60;;;;;;;-5.03;69.28;101838.12;1749954;82;20995;-34
2020/12/10 03:56:40;;;;;;;24.60;9.98;;;;;;;-5.02;69.40;101832.29;1749870;82;20971;-33
2020/12/10 03:59:09;;;;;;;19.70;9.38;;;;;;;-5.02;69.56;101835.22;1749990;82;21058;-36
2020/12/10 04:01:37;;;;;;;22.55;9.23;;;;;;;-4.98;69.43;101822.88;1750032;82;21210;-35
2020/12/10 04:04:06;;;;;;;24.87;9.08;;;;;;;-4.97;69.44;101844.84;1749821;82;20967;-34
2020/12/10 04:06:34;;;;;;;24.37;9.38;;;;;;;-4.94;69.54;101851.36;1749948;82;21031;-35
2020/12/10 04:09:03;;;;;;;24.27;9.35;;;;;;;-4.95;69.67;101853.39;1749886;82;21007;-34
2020/12/10 04:11:31;;;;;;;19.30;8.75;;;;;;;-4.91;69.62;101845.27;1749952;82;20923;-33
2020/12/10 04:14:00;;;;;;;26.05;9.40;;;;;;;-4.97;69.85;101854.94;1749857;82;21193;-33
2020/12/10 04:16:29;;;;;;;23.45;10.08;;;;;;;-4.95;70.02;101861.38;1749857;82;21026;-33
2020/12/10 04:18:58;;;;;;;20.80;9.30;;;;;;;-4.90;70.05;101852.45;1749969;82;20928;-34
2020/12/10 04:21:25;;;;;;;21.07;8.65;;;;;;;-4.92;70.15;101864.10;1749834;81;21046;-33
2020/12/10 04:23:55;;;;;;;28.67;9.65;;;;;;;-4.92;70.12;101853.63;1750027;82;20959;-33
2020/12/10 04:26:23;;;;;;;26.05;9.13;;;;;;;-4.94;70.36;101860.59;1749932;82;21306;-34
2020/12/10 04:28:51;;;;;;;23.38;9.53;;;;;;;-4.88;70.16;101852.56;1749796;82;20939;-34
2020/12/10 04:31:19;;;;;;;18.52;9.05;;;;;;;-4.90;70.17;101844.87;1749972;82;21038;-33
2020/12/10 04:33:47;;;;;;;20.00;9.40;;;;;;;-4.92;70.37;101843.52;1749910;82;21558;-33
2020/12/10 04:36:16;;;;;;;19.75;8.90;;;;;;;-4.92;70.52;101842.63;1749942;82;20936;-35
2020/12/10 04:38:44;;;;;;;21.42;9.38;;;;;;;-4.94;70.69;101843.78;1749941;82;21969;-33
2020/12/10 04:41:12;;;;;;;24.30;10.05;;;;;;;-4.89;70.53;101855.47;1749843;81;21026;-33
2020/12/10 04:43:40;;;;;;;21.10;9.28;;;;;;;-4.89;70.45;101844.09;1749952;82;20939;-34
2020/12/10 04:46:08;;;;;;;25.08;9.70;;;;;;;-4.87;70.42;101845.07;1749830;82;21018;-32
2020/12/10 04:48:36;;;;;;;24.63;10.15;;;;;;;-4.89;70.60;101844.09;1749873;81;20940;-33
2020/12/10 04:51:06;;;;;;;27.75;9.30;;;;;;;-4.91;70.72;101836.80;1749899;82;21355;-34
2020/12/10 04:53:34;;;;;;;27.30;9.90;;;;;;;-4.91;70.82;101842.75;1749835;82;21450;-33
2020/12/10 04:56:07;;;;;;;26.85;10.55;;;;;;;-4.91;70.94;101838.06;1749870;82;20932;-33
2020/12/10 04:58:34;;;;;;;28.45;9.18;;;;;;;-4.92;71.03;101841.37;1749882;82;20927;-32
2020/12/10 05:01:03;;;;;;;24.23;10.18;;;;;;;-4.90;71.23;101841.08;1749896;82;20928;-34
2020/12/10 05:03:32;;;;;;;28.02;10.35;;;;;;;-4.89;71.34;101847.03;1749891;82;21376;-35
2020/12/10 05:06:12;;;;;;;33.00;10.00;;;;;;;-4.88;71.39;101856.36;1749856;82;20979;-34
2020/12/10 05:08:42;;;;;;;26.00;10.63;;;;;;;-4.92;71.48;101853.63;1749914;82;21074;-33
2020/12/10 05:11:10;;;;;;;23.05;10.23;;;;;;;-4.89;71.60;101852.08;1749894;82;20991;-32
2020/12/10 05:13:38;;;;;;;31.33;10.48;;;;;;;-4.85;71.54;101844.78;1749935;82;20936;-34
2020/12/10 05:16:22;;;;;;;21.27;9.23;;;;;;;-4.84;71.71;101843.15;1749872;82;21283;-34
2020/12/10 05:18:50;;;;;;;21.10;9.55;;;;;;;-4.89;71.81;101857.13;1749867;82;21026;-33
2020/12/10 05:21:18;;;;;;;31.02;10.82;;;;;;;-4.88;72.07;101861.41;1749882;82;21007;-33
2020/12/10 05:23:47;;;;;;;26.12;9.95;;;;;;;-4.86;72.11;101853.55;1749943;82;20932;-35
2020/12/10 05:26:15;;;;;;;24.07;10.28;;;;;;;-4.79;72.12;101844.33;1749911;82;20995;-34
2020/12/10 05:28:48;;;;;;;21.07;10.00;;;;;;;-4.80;72.20;101855.20;1698987;82;21383;-33
2020/12/10 05:31:20;;;;;;;27.65;10.32;;;;;;;-4.82;72.23;101863.08;1749912;82;20983;-33
2020/12/10 05:33:55;;;;;;;22.45;10.15;;;;;;;-4.79;72.38;101851.91;1749824;82;20983;-34
2020/12/10 05:36:24;;;;;;;27.25;10.50;;;;;;;-4.79;72.40;101859.12;1750029;82;21070;-33
2020/12/10 05:39:08;;;;;;;29.02;10.78;;;;;;;-4.82;72.51;101858.02;1749956;82;20999;-34
2020/12/10 05:41:35;;;;;;;24.30;10.23;;;;;;;-4.82;72.56;101858.02;1749588;82;22767;-33
2020/12/10 05:44:24;;;;;;;30.02;11.12;;;;;;;-4.79;72.61;101858.22;1749885;82;21498;-33
2020/12/10 05:47:04;;;;;;;25.05;10.23;;;;;;;-4.80;72.63;101862.79;1749724;82;20975;-33
2020/12/10 05:49:33;;;;;;;24.30;10.05;;;;;;;-4.77;72.66;101861.35;1739140;82;21011;-33
2020/12/10 05:52:05;;;;;;;34.80;11.38;;;;;;;-4.80;72.79;101856.47;1735838;82;21510;-33
2020/12/10 05:54:35;;;;;;;26.77;10.48;;;;;;;-4.75;72.71;101846.28;1735907;82;22530;-34
2020/12/10 05:57:04;;;;;;;28.50;10.20;;;;;;;-4.79;72.79;101843.06;1735775;82;21012;-33
2020/12/10 05:59:33;;;;;;;33.15;11.48;;;;;;;-4.83;72.99;101845.76;1735897;82;21115;-34
2020/12/10 06:02:01;;;;;;;26.25;11.08;;;;;;;-4.80;73.06;101844.73;1735719;82;20987;-33
2020/12/10 06:04:30;;;;;;;40.60;12.90;;;;;;;-4.77;72.95;101840.25;1735866;82;21542;-34
2020/12/10 06:06:59;;;;;;;29.00;11.97;;;;;;;-4.78;73.04;101857.45;1735782;82;21363;-35
2020/12/10 06:09:28;;;;;;;29.85;12.78;;;;;;;-4.77;72.98;101851.62;1735741;82;20924;-35
2020/12/10 06:12:05;;;;;;;29.48;12.05;;;;;;;-4.77;72.80;101856.67;1735801;82;21447;-33
2020/12/10 06:14:35;;;;;;;35.43;11.63;;;;;;;-4.76;72.75;101839.47;1735772;82;20979;-32
2020/12/10 06:17:08;;;;;;;29.82;12.13;;;;;;;-4.83;72.86;101857.13;1733761;82;21067;-33
2020/12/10 06:19:37;;;;;;;37.15;10.78;;;;;;;-4.82;72.93;101851.70;1735929;82;21210;-34
2020/12/10 06:22:28;;;;;;;32.10;11.60;;;;;;;-4.78;72.92;101853.66;1735713;82;20964;-34
2020/12/10 06:25:01;;;;;;;26.80;11.57;;;;;;;-4.78;72.83;101835.97;1735833;82;21510;-34
2020/12/10 06:27:33;;;;;;;30.97;11.63;;;;;;;-4.80;72.68;101834.99;1735801;82;21003;-32
2020/12/10 06:30:18;;;;;;;59.83;12.23;;;;;;;-4.80;72.77;101841.31;1735844;82;21001;-33
2020/12/10 06:32:51;;;;;;;37.05;10.18;;;;;;;-4.83;72.81;101843.64;1735822;82;21380;-34
2020/12/10 06:35:34;;;;;;;33.85;10.93;;;;;;;-4.81;72.85;101844.61;1735751;82;20980;-34
2020/12/10 06:38:06;;;;;;;29.37;11.03;;;;;;;-4.79;72.53;101832.58;1735770;82;21008;-32
2020/12/10 06:40:37;;;;;;;44.73;18.70;;;;;;;-4.77;72.50;101831.40;1735873;82;20908;-34
2020/12/10 06:43:06;;;;;;;58.05;22.22;;;;;;;-4.84;72.55;101834.30;1735885;82;22427;-34
2020/12/10 06:45:40;;;;;;;62.67;21.93;;;;;;;-4.81;72.58;101839.16;1735870;82;21205;-34
2020/12/10 06:48:10;;;;;;;90.07;42.30;;;;;;;-4.83;72.69;101833.13;1736028;81;21223;-33
2020/12/10 06:50:39;;;;;;;40.12;13.70;;;;;;;-4.80;72.76;101831.20;1735774;82;20904;-34
2020/12/10 06:53:17;;;;;;;33.83;13.10;;;;;;;-4.77;72.72;101836.09;1735814;82;20908;-34
2020/12/10 06:56:03;;;;;;;32.15;12.90;;;;;;;-4.73;72.72;101833.75;1735868;82;20996;-33
2020/12/10 06:58:46;;;;;;;38.58;13.13;;;;;;;-4.74;72.65;101834.13;1735882;82;21208;-34
2020/12/10 07:01:26;;;;;;;31.07;12.20;;;;;;;-4.67;72.47;101825.31;1735812;82;21046;-33
2020/12/10 07:07:17;;;;;;;34.23;12.37;;;;;;;-4.62;72.51;101822.31;1732261;82;21019;-34
2020/12/10 07:10:00;;;;;;;32.67;11.93;;;;;;;-4.55;71.94;101812.19;1736158;82;20996;-34
2020/12/10 07:12:32;;;;;;;32.53;12.65;;;;;;;-4.56;72.39;101813.37;1736024;82;21362;-32
2020/12/10 07:15:24;;;;;;;32.88;12.35;;;;;;;-4.49;72.23;101815.52;1735867;82;20968;-34
2020/12/10 07:17:49;;;;;;;31.17;11.93;;;;;;;-4.44;72.06;101815.41;1735789;82;21011;-33
2020/12/10 07:20:18;;;;;;;29.75;11.60;;;;;;;-4.47;72.22;101814.85;1735893;82;20916;-34
2020/12/10 07:22:47;;;;;;;33.67;13.80;;;;;;;-4.48;72.36;101815.63;1736056;82;21510;-34
2020/12/10 07:25:15;;;;;;;38.63;12.85;;;;;;;-4.41;72.28;101827.02;1735989;82;21140;-33
2020/12/10 07:27:44;;;;;;;31.27;12.10;;;;;;;-4.35;72.27;101830.31;1735967;82;20979;-32
2020/12/10 07:30:16;;;;;;;37.50;12.03;;;;;;;-4.30;72.13;101811.24;1735897;82;21126;-33
2020/12/10 07:32:44;;;;;;;35.15;12.68;;;;;;;-4.29;71.84;101830.73;1736025;82;21068;-33
2020/12/10 07:35:12;;;;;;;25.40;11.60;;;;;;;-4.28;71.86;101835.38;1735977;82;20980;-34
2020/12/10 07:37:40;;;;;;;30.77;11.78;;;;;;;-4.32;72.07;101834.30;1736046;82;22134;-34
2020/12/10 07:40:14;;;;;;;38.23;13.18;;;;;;;-4.27;71.96;101832.97;1735837;82;21023;-34
2020/12/10 07:42:42;;;;;;;31.68;12.37;;;;;;;-4.24;71.74;101829.36;1735956;82;21003;-34
2020/12/10 07:45:17;;;;;;;25.27;10.90;;;;;;;-4.24;71.66;101823.05;1735882;82;21031;-34
2020/12/10 07:47:58;;;;;;;30.25;11.48;;;;;;;-4.21;71.75;101823.61;1735905;82;20964;-34
2020/12/10 07:50:26;;;;;;;32.00;11.73;;;;;;;-4.17;71.41;101834.80;1747056;81;21379;-33
2020/12/10 07:52:55;;;;;;;52.33;12.43;;;;;;;-4.16;71.72;101842.88;1749828;82;20932;-34
2020/12/10 07:55:27;;;;;;;33.33;11.70;;;;;;;-4.05;71.12;101836.84;1749906;82;20995;-32
2020/12/10 07:58:13;;;;;;;34.05;11.35;;;;;;;-4.04;70.70;101836.95;1749918;82;20931;-32
2020/12/10 08:00:43;;;;;;;25.48;11.73;;;;;;;-4.04;70.59;101839.48;1750011;82;20975;-34
2020/12/10 08:03:45;;;;;;;36.10;11.45;;;;;;;-4.11;70.92;101855.42;1723188;82;21154;-34
2020/12/10 08:06:14;;;;;;;25.23;10.93;;;;;;;-4.12;70.87;101852.03;1749886;82;20995;-33
2020/12/10 08:08:57;;;;;;;27.07;12.60;;;;;;;-4.14;71.14;101846.01;1750013;82;20987;-34
2020/12/10 08:11:20;;;;;;;30.60;12.03;;;;;;;-4.09;70.97;101846.28;1749281;82;21596;-33
2020/12/10 08:14:06;;;;;;;33.33;11.85;;;;;;;-4.11;71.07;101846.20;1749989;82;21288;-33
2020/12/10 08:16:44;;;;;;;36.17;11.10;;;;;;;-4.06;71.00;101829.66;1750078;82;22318;-34
2020/12/10 08:19:23;;;;;;;33.85;11.15;;;;;;;-4.14;71.28;101832.09;1749869;82;21010;-33
2020/12/10 08:21:51;;;;;;;26.40;10.75;;;;;;;-4.09;71.31;101821.88;1749963;82;20999;-33
2020/12/10 08:24:40;;;;;;;28.55;11.50;;;;;;;-4.11;71.37;101823.44;1749850;82;20967;-33
2020/12/10 08:27:12;;;;;;;28.07;11.05;;;;;;;-4.04;71.27;101811.65;1749913;82;21715;-33
2020/12/10 08:30:07;;;;;;;34.67;12.00;;;;;;;-4.02;71.15;101810.87;1749862;82;21206;-33
2020/12/10 08:32:36;;;;;;;30.72;11.03;;;;;;;-4.00;71.28;101808.04;1742847;82;21360;-34
2020/12/10 08:35:07;;;;;;;31.05;10.05;;;;;;;-3.97;71.29;101805.70;1749860;82;20931;-34
2020/12/10 08:37:41;;;;;;;27.30;10.75;;;;;;;-3.92;71.07;101810.28;1749711;82;20923;-34
2020/12/10 08:40:10;;;;;;;26.00;10.80;;;;;;;-3.88;71.06;101807.94;1749902;82;21000;-34
2020/12/10 08:42:38;;;;;;;37.83;11.15;;;;;;;-3.91;70.99;101807.38;1749996;82;21193;-32
2020/12/10 08:45:06;;;;;;;21.50;10.23;;;;;;;-3.89;70.81;101803.28;1749883;82;21462;-36
2020/12/10 08:47:36;;;;;;;24.87;10.08;;;;;;;-3.90;70.90;101799.00;1749909;82;20880;-33
2020/12/10 08:50:27;;;;;;;25.52;10.78;;;;;;;-3.86;70.83;101787.39;1743383;81;21035;-34
2020/12/10 08:53:05;;;;;;;35.85;12.37;;;;;;;-3.93;70.83;101802.58;1735922;82;20976;-33
2020/12/10 08:55:46;;;;;;;28.80;11.50;;;;;;;-3.91;71.00;101780.40;1735870;82;21508;-35
2020/12/10 08:58:23;;;;;;;38.75;12.70;;;;;;;-3.96;71.17;101786.83;1735882;82;21417;-34
2020/12/10 09:00:54;;;;;;;31.95;12.30;;;;;;;-3.99;71.55;101780.32;1735810;82;21015;-34
2020/12/10 09:03:23;;;;;;;27.93;11.30;;;;;;;-4.05;72.10;101787.13;1735991;81;21534;-34
2020/12/10 09:05:52;;;;;;;35.98;13.93;;;;;;;-4.05;72.13;101782.07;1735961;81;20984;-33
2020/12/10 09:08:21;;;;;;;33.90;12.05;;;;;;;-4.07;72.41;101782.36;1735816;82;22561;-35
2020/12/10 09:10:49;;;;;;;30.08;12.20;;;;;;;-4.08;72.61;101788.20;1735914;81;21177;-35
2020/12/10 09:13:17;;;;;;;40.45;12.23;;;;;;;-3.98;72.55;101779.91;1736007;82;20971;-35
2020/12/10 09:15:45;;;;;;;38.60;14.05;;;;;;;-3.97;72.73;101766.48;1735918;81;20976;-34
2020/12/10 09:18:13;;;;;;;28.73;13.40;;;;;;;-3.92;72.90;101781.55;1735821;82;20967;-34
2020/12/10 09:20:41;;;;;;;37.40;13.03;;;;;;;-3.92;72.84;101784.08;1735800;82;21160;-34
2020/12/10 09:23:11;;;;;;;29.65;13.55;;;;;;;-3.96;73.35;101785.57;1735789;81;21047;-34
2020/12/10 09:25:39;;;;;;;33.10;13.03;;;;;;;-3.96;73.69;101775.82;1735849;82;21039;-34
2020/12/10 09:28:08;;;;;;;40.03;13.65;;;;;;;-3.93;73.75;101776.01;1735814;82;21031;-35
2020/12/10 09:30:38;;;;;;;32.85;12.93;;;;;;;-3.94;73.88;101775.15;1735913;82;20889;-34
2020/12/10 09:33:07;;;;;;;39.25;13.83;;;;;;;-3.87;73.97;101762.87;1735734;82;21361;-34
2020/12/10 09:35:35;;;;;;;39.35;13.95;;;;;;;-3.85;73.93;101749.54;1735787;82;21075;-35
2020/12/10 09:38:05;;;;;;;40.48;14.13;;;;;;;-3.86;74.02;101752.86;1735876;82;20979;-35
2020/12/10 09:40:33;;;;;;;37.88;14.73;;;;;;;-3.83;74.25;101751.77;1735829;82;21007;-34
2020/12/10 09:43:01;;;;;;;37.48;14.63;;;;;;;-3.80;74.37;101745.63;1735812;82;20987;-37
2020/12/10 09:45:29;;;;;;;41.15;14.30;;;;;;;-3.79;74.40;101739.78;1735894;82;21301;-33
2020/12/10 09:47:58;;;;;;;54.27;15.88;;;;;;;-3.80;74.73;101743.09;1735773;82;20932;-33
2020/12/10 09:50:29;;;;;;;36.83;13.08;;;;;;;-3.67;74.54;101735.86;1736146;81;20928;-32
2020/12/10 09:57:53;;;;;;;41.77;14.80;;;;;;;-3.58;74.44;101737.18;1701416;82;21208;-34
2020/12/10 10:00:21;;;;;;;42.15;15.08;;;;;;;-3.52;74.48;101724.50;1735757;82;20980;-34
2020/12/10 10:02:49;;;;;;;44.93;15.75;;;;;;;-3.46;74.43;101726.53;1735924;82;21023;-35
2020/12/10 10:05:17;;;;;;;40.45;15.13;;;;;;;-3.49;74.52;101713.70;1735835;82;21000;-34
2020/12/10 10:07:44;;;;;;;49.03;15.58;;;;;;;-3.51;74.20;101720.33;1735828;81;21063;-34
2020/12/10 10:10:13;;;;;;;48.05;14.35;;;;;;;-3.52;74.30;101723.23;1735846;82;22321;-34
2020/12/10 10:12:41;;;;;;;53.40;14.63;;;;;;;-3.43;73.87;101715.69;1735824;82;20976;-35
2020/12/10 10:15:09;;;;;;;43.40;16.17;;;;;;;-3.41;73.79;101719.19;1735860;82;21070;-35
2020/12/10 10:17:37;;;;;;;50.63;16.85;;;;;;;-3.38;73.82;101716.86;1735825;82;20972;-36
2020/12/10 10:20:05;;;;;;;53.20;15.88;;;;;;;-3.37;73.57;101714.81;1735861;82;20932;-34
2020/12/10 10:22:40;;;;;;;44.53;14.87;;;;;;;-3.39;73.70;101709.64;1735610;82;21339;-35
2020/12/10 10:25:06;;;;;;;44.98;14.23;;;;;;;-3.35;73.76;101707.77;1735642;81;20948;-35
2020/12/10 10:27:34;;;;;;;44.40;15.43;;;;;;;-3.27;73.45;101693.02;1735806;82;20924;-35
2020/12/10 10:30:06;;;;;;;41.75;14.63;;;;;;;-3.24;72.87;101697.41;1735763;82;20979;-35
2020/12/10 10:32:34;;;;;;;43.28;14.68;;;;;;;-3.24;73.05;101707.13;1735749;82;20967;-35
2020/12/10 10:35:02;;;;;;;44.23;14.75;;;;;;;-3.18;73.02;101687.20;1719767;82;21200;-33
2020/12/10 10:37:31;;;;;;;40.30;15.05;;;;;;;-3.12;72.62;101704.84;1728737;82;21052;-33
2020/12/10 10:39:59;;;;;;;48.83;14.73;;;;;;;-3.12;72.73;101705.70;1716668;81;20948;-32
2020/12/10 10:42:29;;;;;;;43.55;14.55;;;;;;;-3.10;72.88;101705.80;1705545;84;21044;-32
2020/12/10 10:44:58;;;;;;;50.55;15.75;;;;;;;-3.09;72.58;101711.34;1727251;82;20928;-33
2020/12/10 10:47:25;;;;;;;45.75;14.20;;;;;;;-3.06;72.64;101698.84;1721569;81;21376;-32
2020/12/10 10:49:54;;;;;;;39.00;15.05;;;;;;;-3.08;72.73;101700.42;1714583;82;21991;-33
2020/12/10 10:52:22;;;;;;;34.35;13.93;;;;;;;-3.06;72.80;101699.70;1721602;82;21055;-34
2020/12/10 10:54:51;;;;;;;39.92;14.68;;;;;;;-2.96;72.35;101686.31;1709614;82;20976;-34
2020/12/10 10:57:20;;;;;;;50.58;14.63;;;;;;;-2.98;72.54;101684.95;1707092;82;21521;-32
2020/12/10 10:59:49;;;;;;;32.85;13.43;;;;;;;-3.03;72.78;101695.22;1712020;82;22566;-34
2020/12/10 11:02:17;;;;;;;42.55;14.65;;;;;;;-3.02;73.00;101703.71;1727290;82;20988;-33
2020/12/10 11:06:27;;;;;;;39.73;13.48;;;;;;;-2.85;72.83;101692.84;1795888;79;22568;-34
2020/12/10 11:08:57;;;;;;;45.35;15.32;;;;;;;-2.95;73.29;101698.20;1788221;80;21034;-34
2020/12/10 11:11:25;;;;;;;36.75;14.33;;;;;;;-2.95;73.36;101693.98;1754275;81;21207;-33
2020/12/10 11:13:53;;;;;;;43.58;14.98;;;;;;;-2.92;73.64;101703.44;1724516;83;21008;-34
2020/12/10 11:16:21;;;;;;;40.45;14.63;;;;;;;-2.90;73.91;101706.92;1724443;83;21014;-36
2020/12/10 11:18:50;;;;;;;36.38;13.55;;;;;;;-2.89;74.08;101708.30;1742043;82;20971;-35
2020/12/10 11:21:25;;;;;;;44.85;14.07;;;;;;;-2.89;74.19;101704.50;1754619;81;20983;-33
2020/12/10 11:23:53;;;;;;;41.05;14.80;;;;;;;-2.85;74.32;101705.93;1724786;83;21394;-34
2020/12/10 11:26:21;;;;;;;47.23;14.35;;;;;;;-2.78;74.44;101701.68;1724469;83;20947;-33
2020/12/10 11:28:49;;;;;;;38.83;14.60;;;;;;;-2.78;74.72;101707.64;1742068;82;21023;-34
2020/12/10 11:31:17;;;;;;;36.98;14.98;;;;;;;-2.78;75.18;101715.62;1754494;81;20987;-33
2020/12/10 11:33:45;;;;;;;38.02;13.88;;;;;;;-2.79;75.53;101712.20;1724569;83;21023;-34
2020/12/10 11:36:13;;;;;;;42.38;16.15;;;;;;;-2.79;75.70;101710.92;1724505;83;21381;-35